sensor_id;sensor_type;location;lat;lon;timestamp;P1;durP1;ratioP1;P2;durP2;ratioP2
16401;SDS011;8310;44.626;11.176;2022-09-29T00:00:49;5.78;;;4.78;;
16401;SDS011;8310;44.626;11.176;2022-09-29T00:03:20;5.22;;;4.82;;
16401;SDS011;8310;44.626;11.176;2022-09-29T00:05:49;5.85;;;5.20;;
16401;SDS011;8310;44.626;11.176;2022-09-29T00:08:18;4.82;;;4.38;;
16401;SDS011;8310;44.626;11.176;2022-09-29T00:10:48;5.40;;;4.85;;
16401;SDS011;8310;44.626;11.176;2022-09-29T00:13:16;7.45;;;4.93;;
16401;SDS011;8310;44.626;11.176;2022-09-29T00:15:53;6.35;;;4.65;;
16401;SDS011;8310;44.626;11.176;2022-09-29T00:18:23;5.00;;;4.50;;
16401;SDS011;8310;44.626;11.176;2022-09-29T00:20:55;8.30;;;4.90;;
16401;SDS011;8310;44.626;11.176;2022-09-29T00:23:24;5.65;;;5.15;;
16401;SDS011;8310;44.626;11.176;2022-09-29T00:26:02;5.97;;;4.90;;
16401;SDS011;8310;44.626;11.176;2022-09-29T00:28:32;6.03;;;4.75;;
16401;SDS011;8310;44.626;11.176;2022-09-29T00:31:01;7.68;;;5.53;;
16401;SDS011;8310;44.626;11.176;2022-09-29T00:33:32;6.63;;;5.57;;
16401;SDS011;8310;44.626;11.176;2022-09-29T00:36:04;5.55;;;5.05;;
16401;SDS011;8310;44.626;11.176;2022-09-29T00:38:34;7.35;;;5.75;;
16401;SDS011;8310;44.626;11.176;2022-09-29T00:41:02;9.02;;;6.20;;
16401;SDS011;8310;44.626;11.176;2022-09-29T00:43:47;7.15;;;6.13;;
16401;SDS011;8310;44.626;11.176;2022-09-29T00:46:18;8.80;;;7.25;;
16401;SDS011;8310;44.626;11.176;2022-09-29T00:48:51;7.25;;;6.50;;
16401;SDS011;8310;44.626;11.176;2022-09-29T00:51:21;8.40;;;7.28;;
16401;SDS011;8310;44.626;11.176;2022-09-29T00:53:50;9.30;;;7.22;;
16401;SDS011;8310;44.626;11.176;2022-09-29T00:56:18;9.02;;;7.60;;
16401;SDS011;8310;44.626;11.176;2022-09-29T00:58:47;11.27;;;7.45;;
16401;SDS011;8310;44.626;11.176;2022-09-29T01:01:19;8.32;;;7.32;;
16401;SDS011;8310;44.626;11.176;2022-09-29T01:03:50;7.25;;;6.55;;
16401;SDS011;8310;44.626;11.176;2022-09-29T01:06:23;10.05;;;6.93;;
16401;SDS011;8310;44.626;11.176;2022-09-29T01:08:55;7.85;;;7.05;;
16401;SDS011;8310;44.626;11.176;2022-09-29T01:11:26;10.35;;;7.45;;
16401;SDS011;8310;44.626;11.176;2022-09-29T01:13:54;8.32;;;7.30;;
16401;SDS011;8310;44.626;11.176;2022-09-29T01:16:27;9.82;;;7.97;;
16401;SDS011;8310;44.626;11.176;2022-09-29T01:18:56;8.90;;;8.07;;
16401;SDS011;8310;44.626;11.176;2022-09-29T01:21:27;8.10;;;7.22;;
16401;SDS011;8310;44.626;11.176;2022-09-29T01:24:12;10.02;;;7.78;;
16401;SDS011;8310;44.626;11.176;2022-09-29T01:27:13;8.95;;;7.70;;
16401;SDS011;8310;44.626;11.176;2022-09-29T01:30:01;9.60;;;7.80;;
16401;SDS011;8310;44.626;11.176;2022-09-29T01:32:47;8.50;;;7.70;;
16401;SDS011;8310;44.626;11.176;2022-09-29T01:35:25;10.05;;;8.20;;
16401;SDS011;8310;44.626;11.176;2022-09-29T01:38:01;10.57;;;9.15;;
16401;SDS011;8310;44.626;11.176;2022-09-29T01:40:40;11.90;;;8.15;;
16401;SDS011;8310;44.626;11.176;2022-09-29T01:43:14;10.88;;;8.45;;
16401;SDS011;8310;44.626;11.176;2022-09-29T01:45:47;8.43;;;7.72;;
16401;SDS011;8310;44.626;11.176;2022-09-29T01:48:21;10.88;;;7.65;;
16401;SDS011;8310;44.626;11.176;2022-09-29T01:50:52;9.23;;;8.07;;
16401;SDS011;8310;44.626;11.176;2022-09-29T01:53:24;8.30;;;7.43;;
16401;SDS011;8310;44.626;11.176;2022-09-29T01:55:57;11.38;;;8.27;;
16401;SDS011;8310;44.626;11.176;2022-09-29T01:58:29;8.13;;;6.90;;
16401;SDS011;8310;44.626;11.176;2022-09-29T02:01:04;8.43;;;7.63;;
16401;SDS011;8310;44.626;11.176;2022-09-29T02:03:37;7.88;;;6.60;;
16401;SDS011;8310;44.626;11.176;2022-09-29T02:06:09;8.35;;;7.43;;
16401;SDS011;8310;44.626;11.176;2022-09-29T02:08:43;7.60;;;6.97;;
16401;SDS011;8310;44.626;11.176;2022-09-29T02:11:14;8.60;;;7.75;;
16401;SDS011;8310;44.626;11.176;2022-09-29T02:13:44;10.27;;;7.72;;
16401;SDS011;8310;44.626;11.176;2022-09-29T02:16:16;9.77;;;7.55;;
16401;SDS011;8310;44.626;11.176;2022-09-29T02:18:51;8.13;;;7.28;;
16401;SDS011;8310;44.626;11.176;2022-09-29T02:21:21;8.82;;;7.15;;
16401;SDS011;8310;44.626;11.176;2022-09-29T02:23:49;9.52;;;6.90;;
16401;SDS011;8310;44.626;11.176;2022-09-29T02:26:17;10.35;;;7.68;;
16401;SDS011;8310;44.626;11.176;2022-09-29T02:28:46;8.32;;;7.45;;
16401;SDS011;8310;44.626;11.176;2022-09-29T02:31:13;8.77;;;7.88;;
16401;SDS011;8310;44.626;11.176;2022-09-29T02:33:42;8.63;;;7.65;;
16401;SDS011;8310;44.626;11.176;2022-09-29T02:36:16;8.32;;;7.50;;
16401;SDS011;8310;44.626;11.176;2022-09-29T02:38:51;13.50;;;8.57;;
16401;SDS011;8310;44.626;11.176;2022-09-29T02:41:32;10.07;;;8.48;;
16401;SDS011;8310;44.626;11.176;2022-09-29T02:47:08;13.02;;;7.15;;
16401;SDS011;8310;44.626;11.176;2022-09-29T02:50:01;9.38;;;6.93;;
16401;SDS011;8310;44.626;11.176;2022-09-29T02:52:48;9.00;;;7.28;;
16401;SDS011;8310;44.626;11.176;2022-09-29T02:55:23;9.98;;;7.97;;
16401;SDS011;8310;44.626;11.176;2022-09-29T02:57:58;12.25;;;7.85;;
16401;SDS011;8310;44.626;11.176;2022-09-29T03:00:28;11.30;;;7.68;;
16401;SDS011;8310;44.626;11.176;2022-09-29T03:02:56;8.88;;;7.50;;
16401;SDS011;8310;44.626;11.176;2022-09-29T03:05:24;8.48;;;7.35;;
16401;SDS011;8310;44.626;11.176;2022-09-29T03:07:53;10.88;;;7.70;;
16401;SDS011;8310;44.626;11.176;2022-09-29T03:10:21;10.65;;;7.85;;
16401;SDS011;8310;44.626;11.176;2022-09-29T03:12:49;13.07;;;8.52;;
16401;SDS011;8310;44.626;11.176;2022-09-29T03:15:16;9.73;;;8.32;;
16401;SDS011;8310;44.626;11.176;2022-09-29T03:17:44;11.95;;;8.85;;
16401;SDS011;8310;44.626;11.176;2022-09-29T03:20:11;11.98;;;7.97;;
16401;SDS011;8310;44.626;11.176;2022-09-29T03:22:40;10.32;;;7.75;;
16401;SDS011;8310;44.626;11.176;2022-09-29T03:25:10;10.13;;;7.90;;
16401;SDS011;8310;44.626;11.176;2022-09-29T03:27:42;8.32;;;7.53;;
16401;SDS011;8310;44.626;11.176;2022-09-29T03:30:10;9.57;;;7.72;;
16401;SDS011;8310;44.626;11.176;2022-09-29T03:32:38;12.13;;;8.02;;
16401;SDS011;8310;44.626;11.176;2022-09-29T03:35:06;8.80;;;7.90;;
16401;SDS011;8310;44.626;11.176;2022-09-29T03:37:35;12.60;;;8.73;;
16401;SDS011;8310;44.626;11.176;2022-09-29T03:40:03;12.05;;;7.68;;
16401;SDS011;8310;44.626;11.176;2022-09-29T03:42:32;9.90;;;8.02;;
16401;SDS011;8310;44.626;11.176;2022-09-29T03:44:59;9.55;;;8.10;;
16401;SDS011;8310;44.626;11.176;2022-09-29T03:47:27;10.00;;;8.70;;
16401;SDS011;8310;44.626;11.176;2022-09-29T03:49:55;9.35;;;8.45;;
16401;SDS011;8310;44.626;11.176;2022-09-29T03:52:23;9.85;;;8.93;;
16401;SDS011;8310;44.626;11.176;2022-09-29T03:54:51;12.32;;;9.20;;
16401;SDS011;8310;44.626;11.176;2022-09-29T03:57:18;11.35;;;9.20;;
16401;SDS011;8310;44.626;11.176;2022-09-29T03:59:47;10.23;;;8.88;;
16401;SDS011;8310;44.626;11.176;2022-09-29T04:02:15;11.40;;;9.38;;
16401;SDS011;8310;44.626;11.176;2022-09-29T04:04:43;13.20;;;9.05;;
16401;SDS011;8310;44.626;11.176;2022-09-29T04:07:12;11.48;;;7.97;;
16401;SDS011;8310;44.626;11.176;2022-09-29T04:09:39;12.82;;;9.32;;
16401;SDS011;8310;44.626;11.176;2022-09-29T04:12:07;11.07;;;9.25;;
16401;SDS011;8310;44.626;11.176;2022-09-29T04:14:35;12.75;;;9.32;;
16401;SDS011;8310;44.626;11.176;2022-09-29T04:17:03;9.75;;;8.75;;
16401;SDS011;8310;44.626;11.176;2022-09-29T04:19:31;10.27;;;8.43;;
16401;SDS011;8310;44.626;11.176;2022-09-29T04:21:58;9.82;;;8.52;;
16401;SDS011;8310;44.626;11.176;2022-09-29T04:24:26;9.43;;;8.10;;
16401;SDS011;8310;44.626;11.176;2022-09-29T04:26:54;9.63;;;8.32;;
16401;SDS011;8310;44.626;11.176;2022-09-29T04:29:21;11.68;;;8.43;;
16401;SDS011;8310;44.626;11.176;2022-09-29T04:31:50;10.55;;;8.55;;
16401;SDS011;8310;44.626;11.176;2022-09-29T04:34:19;9.80;;;8.32;;
16401;SDS011;8310;44.626;11.176;2022-09-29T04:36:46;8.98;;;8.07;;
16401;SDS011;8310;44.626;11.176;2022-09-29T04:39:14;10.05;;;9.05;;
16401;SDS011;8310;44.626;11.176;2022-09-29T04:41:41;12.05;;;8.80;;
16401;SDS011;8310;44.626;11.176;2022-09-29T04:44:10;9.70;;;8.70;;
16401;SDS011;8310;44.626;11.176;2022-09-29T04:46:37;10.15;;;8.38;;
16401;SDS011;8310;44.626;11.176;2022-09-29T04:49:05;11.13;;;8.32;;
16401;SDS011;8310;44.626;11.176;2022-09-29T04:51:34;9.40;;;8.50;;
16401;SDS011;8310;44.626;11.176;2022-09-29T04:54:01;9.57;;;8.55;;
16401;SDS011;8310;44.626;11.176;2022-09-29T04:56:29;12.65;;;8.77;;
16401;SDS011;8310;44.626;11.176;2022-09-29T04:59:03;12.40;;;9.10;;
16401;SDS011;8310;44.626;11.176;2022-09-29T05:01:30;10.27;;;7.93;;
16401;SDS011;8310;44.626;11.176;2022-09-29T05:03:57;10.88;;;8.15;;
16401;SDS011;8310;44.626;11.176;2022-09-29T05:06:25;9.93;;;8.35;;
16401;SDS011;8310;44.626;11.176;2022-09-29T05:08:54;10.10;;;7.80;;
16401;SDS011;8310;44.626;11.176;2022-09-29T05:11:22;10.73;;;8.98;;
16401;SDS011;8310;44.626;11.176;2022-09-29T05:13:49;9.80;;;8.80;;
16401;SDS011;8310;44.626;11.176;2022-09-29T05:16:16;11.40;;;8.48;;
16401;SDS011;8310;44.626;11.176;2022-09-29T05:18:44;13.27;;;9.85;;
16401;SDS011;8310;44.626;11.176;2022-09-29T05:21:12;12.07;;;8.73;;
16401;SDS011;8310;44.626;11.176;2022-09-29T05:23:39;9.68;;;8.75;;
16401;SDS011;8310;44.626;11.176;2022-09-29T05:26:15;11.23;;;8.93;;
16401;SDS011;8310;44.626;11.176;2022-09-29T05:28:43;10.70;;;8.65;;
16401;SDS011;8310;44.626;11.176;2022-09-29T05:31:12;12.05;;;9.25;;
16401;SDS011;8310;44.626;11.176;2022-09-29T05:33:41;13.48;;;8.93;;
16401;SDS011;8310;44.626;11.176;2022-09-29T05:36:09;10.57;;;8.85;;
16401;SDS011;8310;44.626;11.176;2022-09-29T05:38:38;11.90;;;9.88;;
16401;SDS011;8310;44.626;11.176;2022-09-29T05:41:07;12.23;;;8.80;;
16401;SDS011;8310;44.626;11.176;2022-09-29T05:43:37;11.10;;;9.32;;
16401;SDS011;8310;44.626;11.176;2022-09-29T05:46:06;13.48;;;8.98;;
16401;SDS011;8310;44.626;11.176;2022-09-29T05:48:35;14.30;;;9.07;;
16401;SDS011;8310;44.626;11.176;2022-09-29T05:51:07;11.90;;;9.68;;
16401;SDS011;8310;44.626;11.176;2022-09-29T05:53:44;23.70;;;10.75;;
16401;SDS011;8310;44.626;11.176;2022-09-29T05:56:13;13.10;;;9.00;;
16401;SDS011;8310;44.626;11.176;2022-09-29T05:58:45;11.88;;;9.48;;
16401;SDS011;8310;44.626;11.176;2022-09-29T06:01:13;14.07;;;9.07;;
16401;SDS011;8310;44.626;11.176;2022-09-29T06:03:42;12.07;;;8.57;;
16401;SDS011;8310;44.626;11.176;2022-09-29T06:06:11;11.15;;;8.55;;
16401;SDS011;8310;44.626;11.176;2022-09-29T06:08:41;11.18;;;9.13;;
16401;SDS011;8310;44.626;11.176;2022-09-29T06:11:10;10.25;;;8.98;;
16401;SDS011;8310;44.626;11.176;2022-09-29T06:13:40;12.02;;;9.15;;
16401;SDS011;8310;44.626;11.176;2022-09-29T06:16:09;14.95;;;10.57;;
16401;SDS011;8310;44.626;11.176;2022-09-29T06:18:38;14.45;;;10.38;;
16401;SDS011;8310;44.626;11.176;2022-09-29T06:21:06;11.55;;;9.52;;
16401;SDS011;8310;44.626;11.176;2022-09-29T06:23:35;13.23;;;10.25;;
16401;SDS011;8310;44.626;11.176;2022-09-29T06:26:05;11.80;;;10.15;;
16401;SDS011;8310;44.626;11.176;2022-09-29T06:28:34;13.30;;;11.88;;
16401;SDS011;8310;44.626;11.176;2022-09-29T06:31:02;12.65;;;11.35;;
16401;SDS011;8310;44.626;11.176;2022-09-29T06:33:33;15.07;;;12.50;;
16401;SDS011;8310;44.626;11.176;2022-09-29T06:36:02;14.65;;;11.15;;
16401;SDS011;8310;44.626;11.176;2022-09-29T06:38:50;22.65;;;12.68;;
16401;SDS011;8310;44.626;11.176;2022-09-29T06:41:18;15.63;;;13.95;;
16401;SDS011;8310;44.626;11.176;2022-09-29T06:43:45;13.55;;;12.15;;
16401;SDS011;8310;44.626;11.176;2022-09-29T06:46:13;15.98;;;13.00;;
16401;SDS011;8310;44.626;11.176;2022-09-29T06:48:42;16.17;;;13.75;;
16401;SDS011;8310;44.626;11.176;2022-09-29T06:51:11;15.50;;;12.98;;
16401;SDS011;8310;44.626;11.176;2022-09-29T06:53:39;13.02;;;11.45;;
16401;SDS011;8310;44.626;11.176;2022-09-29T06:56:06;18.00;;;12.68;;
16401;SDS011;8310;44.626;11.176;2022-09-29T06:58:35;16.40;;;11.73;;
16401;SDS011;8310;44.626;11.176;2022-09-29T07:01:03;14.88;;;12.70;;
16401;SDS011;8310;44.626;11.176;2022-09-29T07:03:31;15.43;;;12.68;;
16401;SDS011;8310;44.626;11.176;2022-09-29T07:06:02;18.13;;;14.30;;
16401;SDS011;8310;44.626;11.176;2022-09-29T07:08:31;23.58;;;16.92;;
16401;SDS011;8310;44.626;11.176;2022-09-29T07:11:00;23.65;;;18.75;;
16401;SDS011;8310;44.626;11.176;2022-09-29T07:13:28;22.77;;;18.33;;
16401;SDS011;8310;44.626;11.176;2022-09-29T07:16:01;24.15;;;16.25;;
16401;SDS011;8310;44.626;11.176;2022-09-29T07:18:33;21.33;;;16.05;;
16401;SDS011;8310;44.626;11.176;2022-09-29T07:21:03;21.58;;;16.80;;
16401;SDS011;8310;44.626;11.176;2022-09-29T07:23:32;18.50;;;15.38;;
16401;SDS011;8310;44.626;11.176;2022-09-29T07:26:00;22.70;;;16.35;;
16401;SDS011;8310;44.626;11.176;2022-09-29T07:28:28;18.88;;;14.48;;
16401;SDS011;8310;44.626;11.176;2022-09-29T07:30:59;17.80;;;15.90;;
16401;SDS011;8310;44.626;11.176;2022-09-29T07:33:27;18.30;;;15.55;;
16401;SDS011;8310;44.626;11.176;2022-09-29T07:35:57;16.65;;;14.40;;
16401;SDS011;8310;44.626;11.176;2022-09-29T07:38:27;18.10;;;15.25;;
16401;SDS011;8310;44.626;11.176;2022-09-29T07:40:58;17.05;;;15.25;;
16401;SDS011;8310;44.626;11.176;2022-09-29T07:43:28;17.75;;;14.75;;
16401;SDS011;8310;44.626;11.176;2022-09-29T07:45:56;21.35;;;14.70;;
16401;SDS011;8310;44.626;11.176;2022-09-29T07:48:24;16.15;;;14.35;;
16401;SDS011;8310;44.626;11.176;2022-09-29T07:50:58;16.63;;;14.80;;
16401;SDS011;8310;44.626;11.176;2022-09-29T07:53:28;19.10;;;15.35;;
16401;SDS011;8310;44.626;11.176;2022-09-29T07:55:55;16.08;;;14.30;;
16401;SDS011;8310;44.626;11.176;2022-09-29T07:58:29;20.88;;;15.07;;
16401;SDS011;8310;44.626;11.176;2022-09-29T08:00:58;18.98;;;15.50;;
16401;SDS011;8310;44.626;11.176;2022-09-29T08:03:25;21.67;;;14.43;;
16401;SDS011;8310;44.626;11.176;2022-09-29T08:05:54;18.20;;;14.73;;
16401;SDS011;8310;44.626;11.176;2022-09-29T08:08:22;15.98;;;14.15;;
16401;SDS011;8310;44.626;11.176;2022-09-29T08:10:51;20.23;;;13.48;;
16401;SDS011;8310;44.626;11.176;2022-09-29T08:13:27;16.50;;;13.27;;
16401;SDS011;8310;44.626;11.176;2022-09-29T08:15:56;15.13;;;13.52;;
16401;SDS011;8310;44.626;11.176;2022-09-29T08:18:25;15.60;;;14.00;;
16401;SDS011;8310;44.626;11.176;2022-09-29T08:20:52;15.30;;;13.75;;
16401;SDS011;8310;44.626;11.176;2022-09-29T08:23:20;17.80;;;14.30;;
16401;SDS011;8310;44.626;11.176;2022-09-29T08:25:47;14.50;;;12.90;;
16401;SDS011;8310;44.626;11.176;2022-09-29T08:28:17;14.45;;;12.90;;
16401;SDS011;8310;44.626;11.176;2022-09-29T08:30:45;13.30;;;12.05;;
16401;SDS011;8310;44.626;11.176;2022-09-29T08:33:12;15.98;;;12.60;;
16401;SDS011;8310;44.626;11.176;2022-09-29T08:35:40;19.75;;;13.80;;
16401;SDS011;8310;44.626;11.176;2022-09-29T08:38:09;14.15;;;12.52;;
16401;SDS011;8310;44.626;11.176;2022-09-29T08:40:36;14.45;;;12.38;;
16401;SDS011;8310;44.626;11.176;2022-09-29T08:43:07;14.52;;;13.02;;
16401;SDS011;8310;44.626;11.176;2022-09-29T08:45:40;13.70;;;12.20;;
16401;SDS011;8310;44.626;11.176;2022-09-29T08:48:11;17.08;;;12.52;;
16401;SDS011;8310;44.626;11.176;2022-09-29T08:50:42;15.13;;;12.25;;
16401;SDS011;8310;44.626;11.176;2022-09-29T08:53:16;13.93;;;12.43;;
16401;SDS011;8310;44.626;11.176;2022-09-29T08:55:49;14.80;;;12.80;;
16401;SDS011;8310;44.626;11.176;2022-09-29T08:58:18;16.65;;;12.80;;
16401;SDS011;8310;44.626;11.176;2022-09-29T09:00:52;13.40;;;12.10;;
16401;SDS011;8310;44.626;11.176;2022-09-29T09:06:35;15.60;;;12.52;;
16401;SDS011;8310;44.626;11.176;2022-09-29T09:12:16;13.95;;;10.90;;
16401;SDS011;8310;44.626;11.176;2022-09-29T09:14:56;14.23;;;10.75;;
16401;SDS011;8310;44.626;11.176;2022-09-29T09:17:46;14.00;;;10.77;;
16401;SDS011;8310;44.626;11.176;2022-09-29T09:20:31;13.38;;;10.70;;
16401;SDS011;8310;44.626;11.176;2022-09-29T09:23:03;13.00;;;11.40;;
16401;SDS011;8310;44.626;11.176;2022-09-29T09:25:39;12.85;;;10.90;;
16401;SDS011;8310;44.626;11.176;2022-09-29T09:28:15;14.75;;;11.52;;
16401;SDS011;8310;44.626;11.176;2022-09-29T09:30:46;13.85;;;10.90;;
16401;SDS011;8310;44.626;11.176;2022-09-29T09:33:25;11.65;;;10.10;;
16401;SDS011;8310;44.626;11.176;2022-09-29T09:35:57;14.13;;;10.63;;
16401;SDS011;8310;44.626;11.176;2022-09-29T09:38:33;12.90;;;10.82;;
16401;SDS011;8310;44.626;11.176;2022-09-29T09:41:15;13.82;;;10.23;;
16401;SDS011;8310;44.626;11.176;2022-09-29T09:43:47;12.07;;;10.88;;
16401;SDS011;8310;44.626;11.176;2022-09-29T09:46:19;13.75;;;10.85;;
16401;SDS011;8310;44.626;11.176;2022-09-29T09:48:56;13.68;;;10.88;;
16401;SDS011;8310;44.626;11.176;2022-09-29T09:51:32;15.05;;;11.23;;
16401;SDS011;8310;44.626;11.176;2022-09-29T09:54:08;10.13;;;8.65;;
16401;SDS011;8310;44.626;11.176;2022-09-29T09:56:43;10.82;;;9.82;;
16401;SDS011;8310;44.626;11.176;2022-09-29T09:59:40;13.98;;;9.35;;
16401;SDS011;8310;44.626;11.176;2022-09-29T10:02:21;12.73;;;9.23;;
16401;SDS011;8310;44.626;11.176;2022-09-29T10:04:51;17.17;;;9.95;;
16401;SDS011;8310;44.626;11.176;2022-09-29T10:07:21;11.27;;;8.40;;
16401;SDS011;8310;44.626;11.176;2022-09-29T10:09:50;10.20;;;7.43;;
16401;SDS011;8310;44.626;11.176;2022-09-29T10:12:20;11.05;;;7.05;;
16401;SDS011;8310;44.626;11.176;2022-09-29T10:14:50;8.85;;;7.60;;
16401;SDS011;8310;44.626;11.176;2022-09-29T10:17:22;9.18;;;7.10;;
16401;SDS011;8310;44.626;11.176;2022-09-29T10:19:57;9.02;;;6.95;;
16401;SDS011;8310;44.626;11.176;2022-09-29T10:22:26;9.57;;;7.07;;
16401;SDS011;8310;44.626;11.176;2022-09-29T10:25:07;9.02;;;6.72;;
16401;SDS011;8310;44.626;11.176;2022-09-29T10:27:43;8.40;;;5.95;;
16401;SDS011;8310;44.626;11.176;2022-09-29T10:30:17;7.60;;;4.93;;
16401;SDS011;8310;44.626;11.176;2022-09-29T10:32:46;8.32;;;4.88;;
16401;SDS011;8310;44.626;11.176;2022-09-29T10:35:17;5.32;;;4.22;;
16401;SDS011;8310;44.626;11.176;2022-09-29T10:37:53;8.98;;;4.50;;
16401;SDS011;8310;44.626;11.176;2022-09-29T10:40:27;6.05;;;3.45;;
16401;SDS011;8310;44.626;11.176;2022-09-29T10:42:55;4.10;;;3.25;;
16401;SDS011;8310;44.626;11.176;2022-09-29T10:45:25;5.65;;;2.63;;
16401;SDS011;8310;44.626;11.176;2022-09-29T10:50:48;4.40;;;2.50;;
16401;SDS011;8310;44.626;11.176;2022-09-29T10:53:26;5.40;;;3.40;;
16401;SDS011;8310;44.626;11.176;2022-09-29T10:56:14;5.20;;;2.60;;
16401;SDS011;8310;44.626;11.176;2022-09-29T10:58:44;4.78;;;2.60;;
16401;SDS011;8310;44.626;11.176;2022-09-29T11:01:20;4.50;;;2.70;;
16401;SDS011;8310;44.626;11.176;2022-09-29T11:03:49;5.03;;;2.85;;
16401;SDS011;8310;44.626;11.176;2022-09-29T11:06:27;7.75;;;2.92;;
16401;SDS011;8310;44.626;11.176;2022-09-29T11:08:58;5.53;;;3.22;;
16401;SDS011;8310;44.626;11.176;2022-09-29T11:11:28;3.90;;;2.30;;
16401;SDS011;8310;44.626;11.176;2022-09-29T11:13:57;4.10;;;2.70;;
16401;SDS011;8310;44.626;11.176;2022-09-29T11:16:26;5.00;;;2.38;;
16401;SDS011;8310;44.626;11.176;2022-09-29T11:19:03;5.60;;;2.60;;
16401;SDS011;8310;44.626;11.176;2022-09-29T11:24:40;4.00;;;1.58;;
16401;SDS011;8310;44.626;11.176;2022-09-29T11:27:27;2.08;;;1.13;;
16401;SDS011;8310;44.626;11.176;2022-09-29T11:30:02;5.82;;;1.50;;
16401;SDS011;8310;44.626;11.176;2022-09-29T11:32:36;2.88;;;1.00;;
16401;SDS011;8310;44.626;11.176;2022-09-29T11:35:16;2.05;;;1.30;;
16401;SDS011;8310;44.626;11.176;2022-09-29T11:37:58;1.90;;;1.40;;
16401;SDS011;8310;44.626;11.176;2022-09-29T11:40:44;1.63;;;1.05;;
16401;SDS011;8310;44.626;11.176;2022-09-29T11:43:29;2.35;;;2.13;;
16401;SDS011;8310;44.626;11.176;2022-09-29T11:46:13;2.58;;;1.20;;
16401;SDS011;8310;44.626;11.176;2022-09-29T11:49:03;1.67;;;1.10;;
16401;SDS011;8310;44.626;11.176;2022-09-29T11:54:53;2.08;;;1.40;;
16401;SDS011;8310;44.626;11.176;2022-09-29T11:57:45;2.45;;;1.30;;
16401;SDS011;8310;44.626;11.176;2022-09-29T12:00:20;2.75;;;1.60;;
16401;SDS011;8310;44.626;11.176;2022-09-29T12:03:02;2.67;;;1.50;;
16401;SDS011;8310;44.626;11.176;2022-09-29T12:05:49;3.35;;;1.52;;
16401;SDS011;8310;44.626;11.176;2022-09-29T12:08:26;2.67;;;1.20;;
16401;SDS011;8310;44.626;11.176;2022-09-29T12:11:06;2.40;;;1.30;;
16401;SDS011;8310;44.626;11.176;2022-09-29T12:13:45;3.00;;;1.50;;
16401;SDS011;8310;44.626;11.176;2022-09-29T12:16:17;2.95;;;1.35;;
16401;SDS011;8310;44.626;11.176;2022-09-29T12:18:48;4.38;;;1.70;;
16401;SDS011;8310;44.626;11.176;2022-09-29T12:21:21;3.70;;;1.35;;
16401;SDS011;8310;44.626;11.176;2022-09-29T12:23:56;3.20;;;1.75;;
16401;SDS011;8310;44.626;11.176;2022-09-29T12:26:26;2.03;;;1.35;;
16401;SDS011;8310;44.626;11.176;2022-09-29T12:28:57;2.88;;;1.50;;
16401;SDS011;8310;44.626;11.176;2022-09-29T12:31:29;1.83;;;1.30;;
16401;SDS011;8310;44.626;11.176;2022-09-29T12:34:02;1.40;;;1.27;;
16401;SDS011;8310;44.626;11.176;2022-09-29T12:36:37;2.65;;;1.45;;
16401;SDS011;8310;44.626;11.176;2022-09-29T12:42:06;3.28;;;1.67;;
16401;SDS011;8310;44.626;11.176;2022-09-29T12:44:48;3.33;;;1.60;;
16401;SDS011;8310;44.626;11.176;2022-09-29T12:47:22;5.30;;;2.17;;
16401;SDS011;8310;44.626;11.176;2022-09-29T12:49:58;1.70;;;1.50;;
16401;SDS011;8310;44.626;11.176;2022-09-29T12:52:32;1.67;;;1.30;;
16401;SDS011;8310;44.626;11.176;2022-09-29T12:55:06;1.13;;;0.95;;
16401;SDS011;8310;44.626;11.176;2022-09-29T12:57:43;2.10;;;1.45;;
16401;SDS011;8310;44.626;11.176;2022-09-29T13:00:16;0.70;;;0.70;;
16401;SDS011;8310;44.626;11.176;2022-09-29T13:02:57;0.85;;;0.82;;
16401;SDS011;8310;44.626;11.176;2022-09-29T13:11:48;0.70;;;0.70;;
16401;SDS011;8310;44.626;11.176;2022-09-29T13:14:42;0.90;;;0.60;;
16401;SDS011;8310;44.626;11.176;2022-09-29T13:17:37;0.75;;;0.73;;
16401;SDS011;8310;44.626;11.176;2022-09-29T13:20:34;1.90;;;0.80;;
16401;SDS011;8310;44.626;11.176;2022-09-29T13:26:28;1.55;;;0.85;;
16401;SDS011;8310;44.626;11.176;2022-09-29T13:29:16;1.38;;;0.90;;
16401;SDS011;8310;44.626;11.176;2022-09-29T13:31:46;0.68;;;0.68;;
16401;SDS011;8310;44.626;11.176;2022-09-29T13:34:29;1.48;;;0.70;;
16401;SDS011;8310;44.626;11.176;2022-09-29T13:37:04;1.48;;;0.77;;
16401;SDS011;8310;44.626;11.176;2022-09-29T13:39:37;2.08;;;0.85;;
16401;SDS011;8310;44.626;11.176;2022-09-29T13:54:25;1.02;;;0.73;;
16401;SDS011;8310;44.626;11.176;2022-09-29T13:56:59;1.58;;;1.15;;
16401;SDS011;8310;44.626;11.176;2022-09-29T13:59:31;1.17;;;0.95;;
16401;SDS011;8310;44.626;11.176;2022-09-29T14:02:01;2.20;;;1.30;;
16401;SDS011;8310;44.626;11.176;2022-09-29T14:04:44;1.33;;;1.23;;
16401;SDS011;8310;44.626;11.176;2022-09-29T14:10:13;1.40;;;0.65;;
16401;SDS011;8310;44.626;11.176;2022-09-29T14:12:50;1.70;;;1.10;;
16401;SDS011;8310;44.626;11.176;2022-09-29T14:15:22;1.70;;;0.75;;
16401;SDS011;8310;44.626;11.176;2022-09-29T14:17:54;1.23;;;0.82;;
16401;SDS011;8310;44.626;11.176;2022-09-29T14:20:30;0.88;;;0.80;;
16401;SDS011;8310;44.626;11.176;2022-09-29T14:23:04;0.98;;;0.88;;
16401;SDS011;8310;44.626;11.176;2022-09-29T14:25:47;1.63;;;1.08;;
16401;SDS011;8310;44.626;11.176;2022-09-29T14:28:25;0.63;;;0.63;;
16401;SDS011;8310;44.626;11.176;2022-09-29T14:31:15;0.80;;;0.80;;
16401;SDS011;8310;44.626;11.176;2022-09-29T14:33:46;1.00;;;0.60;;
16401;SDS011;8310;44.626;11.176;2022-09-29T14:36:17;1.00;;;0.80;;
16401;SDS011;8310;44.626;11.176;2022-09-29T14:38:49;1.88;;;0.90;;
16401;SDS011;8310;44.626;11.176;2022-09-29T14:41:25;1.83;;;0.75;;
16401;SDS011;8310;44.626;11.176;2022-09-29T14:43:56;2.25;;;1.10;;
16401;SDS011;8310;44.626;11.176;2022-09-29T14:46:40;2.90;;;0.85;;
16401;SDS011;8310;44.626;11.176;2022-09-29T14:53:21;1.33;;;0.90;;
16401;SDS011;8310;44.626;11.176;2022-09-29T14:56:05;0.80;;;0.80;;
16401;SDS011;8310;44.626;11.176;2022-09-29T14:58:46;2.08;;;0.82;;
16401;SDS011;8310;44.626;11.176;2022-09-29T15:01:25;1.33;;;0.82;;
16401;SDS011;8310;44.626;11.176;2022-09-29T15:03:54;4.20;;;0.98;;
16401;SDS011;8310;44.626;11.176;2022-09-29T15:06:24;2.20;;;0.90;;
16401;SDS011;8310;44.626;11.176;2022-09-29T15:08:54;1.85;;;1.40;;
16401;SDS011;8310;44.626;11.176;2022-09-29T15:14:21;1.40;;;0.93;;
16401;SDS011;8310;44.626;11.176;2022-09-29T15:16:54;4.05;;;1.45;;
16401;SDS011;8310;44.626;11.176;2022-09-29T15:19:48;3.53;;;1.00;;
16401;SDS011;8310;44.626;11.176;2022-09-29T15:22:32;2.80;;;0.93;;
16401;SDS011;8310;44.626;11.176;2022-09-29T15:25:16;2.60;;;1.17;;
16401;SDS011;8310;44.626;11.176;2022-09-29T15:27:55;0.77;;;0.77;;
16401;SDS011;8310;44.626;11.176;2022-09-29T15:30:26;1.23;;;1.13;;
16401;SDS011;8310;44.626;11.176;2022-09-29T15:33:02;2.28;;;0.93;;
16401;SDS011;8310;44.626;11.176;2022-09-29T15:35:37;3.45;;;1.23;;
16401;SDS011;8310;44.626;11.176;2022-09-29T15:38:16;2.78;;;1.20;;
16401;SDS011;8310;44.626;11.176;2022-09-29T15:40:57;2.40;;;1.00;;
16401;SDS011;8310;44.626;11.176;2022-09-29T15:43:30;1.85;;;1.35;;
16401;SDS011;8310;44.626;11.176;2022-09-29T15:46:12;4.63;;;1.20;;
16401;SDS011;8310;44.626;11.176;2022-09-29T15:48:56;2.53;;;1.30;;
16401;SDS011;8310;44.626;11.176;2022-09-29T15:51:32;2.15;;;1.10;;
16401;SDS011;8310;44.626;11.176;2022-09-29T15:54:00;3.65;;;1.13;;
16401;SDS011;8310;44.626;11.176;2022-09-29T15:56:28;1.85;;;1.40;;
16401;SDS011;8310;44.626;11.176;2022-09-29T15:58:58;3.58;;;1.25;;
16401;SDS011;8310;44.626;11.176;2022-09-29T16:01:26;2.90;;;1.13;;
16401;SDS011;8310;44.626;11.176;2022-09-29T16:03:55;1.88;;;1.23;;